sensor_id;sensor_type;location;lat;lon;timestamp;P1;durP1;ratioP1;P2;durP2;ratioP2
37973;SDS011;23796;51.458;7.000;2023-10-13T00:00:40;9.48;;;6.43;;
37973;SDS011;23796;51.458;7.000;2023-10-13T00:03:08;10.20;;;6.70;;
37973;SDS011;23796;51.458;7.000;2023-10-13T00:05:40;8.90;;;6.30;;
37973;SDS011;23796;51.458;7.000;2023-10-13T00:08:07;8.85;;;6.72;;
37973;SDS011;23796;51.458;7.000;2023-10-13T00:10:34;7.63;;;5.50;;
37973;SDS011;23796;51.458;7.000;2023-10-13T00:13:00;9.35;;;6.53;;
37973;SDS011;23796;51.458;7.000;2023-10-13T00:15:41;10.80;;;6.43;;
37973;SDS011;23796;51.458;7.000;2023-10-13T00:18:23;11.43;;;6.68;;
37973;SDS011;23796;51.458;7.000;2023-10-13T00:20:51;6.72;;;5.50;;
37973;SDS011;23796;51.458;7.000;2023-10-13T00:23:22;6.88;;;5.10;;
37973;SDS011;23796;51.458;7.000;2023-10-13T00:25:48;9.65;;;5.85;;
37973;SDS011;23796;51.458;7.000;2023-10-13T00:28:25;9.77;;;5.65;;
37973;SDS011;23796;51.458;7.000;2023-10-13T00:31:03;12.73;;;6.80;;
37973;SDS011;23796;51.458;7.000;2023-10-13T00:33:38;8.43;;;5.32;;
37973;SDS011;23796;51.458;7.000;2023-10-13T00:36:06;8.73;;;6.15;;
37973;SDS011;23796;51.458;7.000;2023-10-13T00:38:33;8.18;;;5.43;;
37973;SDS011;23796;51.458;7.000;2023-10-13T00:41:02;9.75;;;5.85;;
37973;SDS011;23796;51.458;7.000;2023-10-13T00:43:43;8.80;;;5.95;;
37973;SDS011;23796;51.458;7.000;2023-10-13T00:46:35;9.23;;;5.40;;
37973;SDS011;23796;51.458;7.000;2023-10-13T00:49:03;8.32;;;5.60;;
37973;SDS011;23796;51.458;7.000;2023-10-13T00:51:30;7.90;;;5.53;;
37973;SDS011;23796;51.458;7.000;2023-10-13T00:54:06;8.32;;;5.72;;
37973;SDS011;23796;51.458;7.000;2023-10-13T00:56:37;7.63;;;5.90;;
37973;SDS011;23796;51.458;7.000;2023-10-13T00:59:06;7.30;;;5.35;;
37973;SDS011;23796;51.458;7.000;2023-10-13T01:01:37;7.68;;;5.95;;
37973;SDS011;23796;51.458;7.000;2023-10-13T01:04:05;7.80;;;5.68;;
37973;SDS011;23796;51.458;7.000;2023-10-13T01:06:33;9.07;;;6.20;;
37973;SDS011;23796;51.458;7.000;2023-10-13T01:11:43;9.00;;;5.30;;
37973;SDS011;23796;51.458;7.000;2023-10-13T01:14:10;7.90;;;5.85;;
37973;SDS011;23796;51.458;7.000;2023-10-13T01:16:37;8.55;;;5.40;;
37973;SDS011;23796;51.458;7.000;2023-10-13T01:19:12;9.20;;;5.50;;
37973;SDS011;23796;51.458;7.000;2023-10-13T01:21:42;6.85;;;5.28;;
37973;SDS011;23796;51.458;7.000;2023-10-13T01:24:09;7.50;;;4.95;;
37973;SDS011;23796;51.458;7.000;2023-10-13T01:26:40;8.60;;;5.30;;
37973;SDS011;23796;51.458;7.000;2023-10-13T01:29:07;8.32;;;5.40;;
37973;SDS011;23796;51.458;7.000;2023-10-13T01:31:43;8.77;;;5.13;;
37973;SDS011;23796;51.458;7.000;2023-10-13T01:34:16;7.57;;;4.95;;
37973;SDS011;23796;51.458;7.000;2023-10-13T01:36:46;6.80;;;5.18;;
37973;SDS011;23796;51.458;7.000;2023-10-13T01:39:16;6.85;;;4.95;;
37973;SDS011;23796;51.458;7.000;2023-10-13T01:41:46;8.77;;;5.28;;
37973;SDS011;23796;51.458;7.000;2023-10-13T01:44:20;9.60;;;5.43;;
37973;SDS011;23796;51.458;7.000;2023-10-13T01:46:48;6.85;;;5.18;;
37973;SDS011;23796;51.458;7.000;2023-10-13T01:49:16;7.57;;;5.22;;
37973;SDS011;23796;51.458;7.000;2023-10-13T01:51:42;9.13;;;5.18;;
37973;SDS011;23796;51.458;7.000;2023-10-13T01:54:12;9.52;;;5.30;;
37973;SDS011;23796;51.458;7.000;2023-10-13T01:56:40;8.02;;;5.30;;
37973;SDS011;23796;51.458;7.000;2023-10-13T01:59:12;7.15;;;5.30;;
37973;SDS011;23796;51.458;7.000;2023-10-13T02:01:38;8.32;;;5.40;;
37973;SDS011;23796;51.458;7.000;2023-10-13T02:04:06;6.95;;;5.07;;
37973;SDS011;23796;51.458;7.000;2023-10-13T02:06:33;13.60;;;5.97;;
37973;SDS011;23796;51.458;7.000;2023-10-13T02:09:07;7.70;;;5.15;;
37973;SDS011;23796;51.458;7.000;2023-10-13T02:11:50;10.02;;;5.68;;
37973;SDS011;23796;51.458;7.000;2023-10-13T02:14:20;7.10;;;5.55;;
37973;SDS011;23796;51.458;7.000;2023-10-13T02:16:51;7.40;;;5.13;;
37973;SDS011;23796;51.458;7.000;2023-10-13T02:19:21;9.32;;;5.90;;
37973;SDS011;23796;51.458;7.000;2023-10-13T02:21:47;7.10;;;5.03;;
37973;SDS011;23796;51.458;7.000;2023-10-13T02:24:23;8.93;;;5.55;;
37973;SDS011;23796;51.458;7.000;2023-10-13T02:26:54;9.02;;;5.60;;
37973;SDS011;23796;51.458;7.000;2023-10-13T02:29:21;6.78;;;5.03;;
37973;SDS011;23796;51.458;7.000;2023-10-13T02:31:47;9.57;;;5.30;;
37973;SDS011;23796;51.458;7.000;2023-10-13T02:36:47;7.28;;;5.80;;
37973;SDS011;23796;51.458;7.000;2023-10-13T02:39:19;9.95;;;5.95;;
37973;SDS011;23796;51.458;7.000;2023-10-13T02:41:51;5.82;;;4.70;;
37973;SDS011;23796;51.458;7.000;2023-10-13T02:44:17;8.52;;;5.38;;
37973;SDS011;23796;51.458;7.000;2023-10-13T02:46:55;8.60;;;4.93;;
37973;SDS011;23796;51.458;7.000;2023-10-13T02:49:30;7.80;;;4.95;;
37973;SDS011;23796;51.458;7.000;2023-10-13T02:51:59;8.35;;;5.15;;
37973;SDS011;23796;51.458;7.000;2023-10-13T02:54:30;6.72;;;4.70;;
37973;SDS011;23796;51.458;7.000;2023-10-13T02:56:56;7.35;;;5.07;;
37973;SDS011;23796;51.458;7.000;2023-10-13T02:59:28;8.98;;;4.93;;
37973;SDS011;23796;51.458;7.000;2023-10-13T03:07:14;5.75;;;4.63;;
37973;SDS011;23796;51.458;7.000;2023-10-13T03:09:41;8.02;;;5.30;;
37973;SDS011;23796;51.458;7.000;2023-10-13T03:12:15;6.05;;;4.30;;
37973;SDS011;23796;51.458;7.000;2023-10-13T03:14:49;6.95;;;4.97;;
37973;SDS011;23796;51.458;7.000;2023-10-13T03:17:22;8.05;;;5.28;;
37973;SDS011;23796;51.458;7.000;2023-10-13T03:20:00;5.97;;;5.20;;
37973;SDS011;23796;51.458;7.000;2023-10-13T03:22:25;6.90;;;5.00;;
37973;SDS011;23796;51.458;7.000;2023-10-13T03:24:58;8.35;;;5.53;;
37973;SDS011;23796;51.458;7.000;2023-10-13T03:27:29;6.10;;;5.05;;
37973;SDS011;23796;51.458;7.000;2023-10-13T03:30:27;7.43;;;5.47;;
37973;SDS011;23796;51.458;7.000;2023-10-13T03:33:04;7.28;;;5.30;;
37973;SDS011;23796;51.458;7.000;2023-10-13T03:35:39;9.38;;;5.32;;
37973;SDS011;23796;51.458;7.000;2023-10-13T03:38:11;8.95;;;5.80;;
37973;SDS011;23796;51.458;7.000;2023-10-13T03:40:43;8.23;;;6.00;;
37973;SDS011;23796;51.458;7.000;2023-10-13T03:43:22;7.72;;;6.15;;
37973;SDS011;23796;51.458;7.000;2023-10-13T03:45:48;6.68;;;5.53;;
37973;SDS011;23796;51.458;7.000;2023-10-13T03:48:33;7.10;;;5.53;;
37973;SDS011;23796;51.458;7.000;2023-10-13T03:51:05;7.63;;;5.35;;
37973;SDS011;23796;51.458;7.000;2023-10-13T03:53:41;7.88;;;5.80;;
37973;SDS011;23796;51.458;7.000;2023-10-13T03:56:23;8.27;;;5.72;;
37973;SDS011;23796;51.458;7.000;2023-10-13T03:58:56;7.50;;;5.55;;
37973;SDS011;23796;51.458;7.000;2023-10-13T04:01:40;8.25;;;6.05;;
37973;SDS011;23796;51.458;7.000;2023-10-13T04:04:08;8.80;;;5.95;;
37973;SDS011;23796;51.458;7.000;2023-10-13T04:06:36;7.70;;;5.75;;
37973;SDS011;23796;51.458;7.000;2023-10-13T04:11:55;8.30;;;6.05;;
37973;SDS011;23796;51.458;7.000;2023-10-13T04:14:28;8.00;;;6.30;;
37973;SDS011;23796;51.458;7.000;2023-10-13T04:17:13;8.27;;;5.72;;
37973;SDS011;23796;51.458;7.000;2023-10-13T04:19:39;7.95;;;5.70;;
37973;SDS011;23796;51.458;7.000;2023-10-13T04:22:26;8.82;;;5.50;;
37973;SDS011;23796;51.458;7.000;2023-10-13T04:25:22;8.05;;;5.85;;
37973;SDS011;23796;51.458;7.000;2023-10-13T04:28:00;8.45;;;5.43;;
37973;SDS011;23796;51.458;7.000;2023-10-13T04:30:45;8.82;;;5.95;;
37973;SDS011;23796;51.458;7.000;2023-10-13T04:38:37;9.43;;;6.22;;
37973;SDS011;23796;51.458;7.000;2023-10-13T04:41:20;7.30;;;5.53;;
37973;SDS011;23796;51.458;7.000;2023-10-13T04:43:57;9.70;;;5.75;;
37973;SDS011;23796;51.458;7.000;2023-10-13T04:46:30;9.85;;;5.45;;
37973;SDS011;23796;51.458;7.000;2023-10-13T04:49:22;8.15;;;5.32;;
37973;SDS011;23796;51.458;7.000;2023-10-13T04:51:56;9.38;;;5.50;;
37973;SDS011;23796;51.458;7.000;2023-10-13T04:54:36;7.40;;;5.68;;
37973;SDS011;23796;51.458;7.000;2023-10-13T04:57:22;8.25;;;6.07;;
37973;SDS011;23796;51.458;7.000;2023-10-13T05:00:00;7.30;;;5.70;;
37973;SDS011;23796;51.458;7.000;2023-10-13T05:02:32;8.40;;;5.80;;
37973;SDS011;23796;51.458;7.000;2023-10-13T05:05:02;8.82;;;5.68;;
37973;SDS011;23796;51.458;7.000;2023-10-13T05:07:31;8.13;;;5.60;;
37973;SDS011;23796;51.458;7.000;2023-10-13T05:10:16;9.23;;;6.05;;
37973;SDS011;23796;51.458;7.000;2023-10-13T05:13:00;10.13;;;5.68;;
37973;SDS011;23796;51.458;7.000;2023-10-13T05:15:48;9.57;;;6.28;;
37973;SDS011;23796;51.458;7.000;2023-10-13T05:18:33;7.05;;;5.50;;
37973;SDS011;23796;51.458;7.000;2023-10-13T05:21:17;8.57;;;5.95;;
37973;SDS011;23796;51.458;7.000;2023-10-13T05:24:02;7.43;;;5.30;;
37973;SDS011;23796;51.458;7.000;2023-10-13T05:26:50;8.23;;;5.80;;
37973;SDS011;23796;51.458;7.000;2023-10-13T05:29:38;7.85;;;5.53;;
37973;SDS011;23796;51.458;7.000;2023-10-13T05:32:23;9.77;;;5.90;;
37973;SDS011;23796;51.458;7.000;2023-10-13T05:35:08;9.43;;;5.88;;
37973;SDS011;23796;51.458;7.000;2023-10-13T05:37:52;9.35;;;5.90;;
37973;SDS011;23796;51.458;7.000;2023-10-13T05:40:36;10.10;;;5.93;;
37973;SDS011;23796;51.458;7.000;2023-10-13T05:43:20;8.18;;;5.72;;
37973;SDS011;23796;51.458;7.000;2023-10-13T05:46:05;8.18;;;5.32;;
37973;SDS011;23796;51.458;7.000;2023-10-13T05:48:49;8.30;;;5.57;;
37973;SDS011;23796;51.458;7.000;2023-10-13T05:51:24;8.77;;;6.20;;
37973;SDS011;23796;51.458;7.000;2023-10-13T05:54:12;8.82;;;4.85;;
37973;SDS011;23796;51.458;7.000;2023-10-13T05:56:39;10.52;;;5.75;;
37973;SDS011;23796;51.458;7.000;2023-10-13T05:59:27;8.98;;;5.20;;
37973;SDS011;23796;51.458;7.000;2023-10-13T06:02:12;9.30;;;5.50;;
37973;SDS011;23796;51.458;7.000;2023-10-13T06:05:01;7.50;;;4.43;;
37973;SDS011;23796;51.458;7.000;2023-10-13T06:07:45;9.75;;;4.75;;
37973;SDS011;23796;51.458;7.000;2023-10-13T06:10:29;8.23;;;4.30;;
37973;SDS011;23796;51.458;7.000;2023-10-13T06:13:13;7.88;;;4.35;;
37973;SDS011;23796;51.458;7.000;2023-10-13T06:15:57;7.13;;;4.10;;
37973;SDS011;23796;51.458;7.000;2023-10-13T06:18:41;9.38;;;4.63;;
37973;SDS011;23796;51.458;7.000;2023-10-13T06:21:25;8.25;;;4.05;;
37973;SDS011;23796;51.458;7.000;2023-10-13T06:24:09;7.97;;;3.97;;
37973;SDS011;23796;51.458;7.000;2023-10-13T06:26:53;7.18;;;3.60;;
37973;SDS011;23796;51.458;7.000;2023-10-13T06:29:37;8.93;;;3.50;;
37973;SDS011;23796;51.458;7.000;2023-10-13T06:32:05;10.45;;;4.75;;
37973;SDS011;23796;51.458;7.000;2023-10-13T06:34:37;6.65;;;3.70;;
37973;SDS011;23796;51.458;7.000;2023-10-13T06:37:09;7.55;;;4.32;;
37973;SDS011;23796;51.458;7.000;2023-10-13T06:40:03;9.07;;;4.00;;
37973;SDS011;23796;51.458;7.000;2023-10-13T06:42:52;8.93;;;3.78;;
37973;SDS011;23796;51.458;7.000;2023-10-13T06:45:20;12.25;;;4.53;;
37973;SDS011;23796;51.458;7.000;2023-10-13T06:47:46;7.85;;;3.53;;
37973;SDS011;23796;51.458;7.000;2023-10-13T06:50:17;9.32;;;3.80;;
37973;SDS011;23796;51.458;7.000;2023-10-13T06:52:51;10.38;;;3.60;;
37973;SDS011;23796;51.458;7.000;2023-10-13T06:55:20;9.23;;;3.80;;
37973;SDS011;23796;51.458;7.000;2023-10-13T06:58:00;9.00;;;3.80;;
37973;SDS011;23796;51.458;7.000;2023-10-13T07:00:26;8.57;;;3.63;;
37973;SDS011;23796;51.458;7.000;2023-10-13T07:02:59;7.22;;;3.78;;
37973;SDS011;23796;51.458;7.000;2023-10-13T07:05:35;7.18;;;3.95;;
37973;SDS011;23796;51.458;7.000;2023-10-13T07:08:07;7.05;;;3.85;;
37973;SDS011;23796;51.458;7.000;2023-10-13T07:10:34;8.45;;;3.85;;
37973;SDS011;23796;51.458;7.000;2023-10-13T07:13:18;7.68;;;3.65;;
37973;SDS011;23796;51.458;7.000;2023-10-13T07:15:47;10.32;;;3.90;;
37973;SDS011;23796;51.458;7.000;2023-10-13T07:18:13;7.00;;;3.78;;
37973;SDS011;23796;51.458;7.000;2023-10-13T07:20:42;8.20;;;3.95;;
37973;SDS011;23796;51.458;7.000;2023-10-13T07:23:13;7.32;;;3.80;;
37973;SDS011;23796;51.458;7.000;2023-10-13T07:25:52;8.02;;;3.95;;
37973;SDS011;23796;51.458;7.000;2023-10-13T07:28:28;8.68;;;3.85;;
37973;SDS011;23796;51.458;7.000;2023-10-13T07:31:11;9.77;;;4.40;;
37973;SDS011;23796;51.458;7.000;2023-10-13T07:33:40;7.05;;;3.95;;
37973;SDS011;23796;51.458;7.000;2023-10-13T07:36:07;7.05;;;3.95;;
37973;SDS011;23796;51.458;7.000;2023-10-13T07:38:52;8.27;;;3.90;;
37973;SDS011;23796;51.458;7.000;2023-10-13T07:41:44;12.55;;;5.78;;
37973;SDS011;23796;51.458;7.000;2023-10-13T07:44:18;9.43;;;3.92;;
37973;SDS011;23796;51.458;7.000;2023-10-13T07:46:49;8.80;;;4.30;;
37973;SDS011;23796;51.458;7.000;2023-10-13T07:49:25;13.80;;;6.85;;
37973;SDS011;23796;51.458;7.000;2023-10-13T07:51:56;14.50;;;7.10;;
37973;SDS011;23796;51.458;7.000;2023-10-13T07:54:44;9.18;;;4.00;;
37973;SDS011;23796;51.458;7.000;2023-10-13T07:57:14;7.85;;;3.78;;
37973;SDS011;23796;51.458;7.000;2023-10-13T07:59:54;8.40;;;3.47;;
37973;SDS011;23796;51.458;7.000;2023-10-13T08:03:00;7.72;;;4.13;;
37973;SDS011;23796;51.458;7.000;2023-10-13T08:05:41;6.80;;;3.80;;
37973;SDS011;23796;51.458;7.000;2023-10-13T08:08:28;9.98;;;4.07;;
37973;SDS011;23796;51.458;7.000;2023-10-13T08:11:03;7.72;;;3.65;;
37973;SDS011;23796;51.458;7.000;2023-10-13T08:13:56;10.48;;;3.90;;
37973;SDS011;23796;51.458;7.000;2023-10-13T08:16:41;10.52;;;3.55;;
37973;SDS011;23796;51.458;7.000;2023-10-13T08:19:13;7.80;;;3.70;;
37973;SDS011;23796;51.458;7.000;2023-10-13T08:21:40;11.43;;;4.35;;
37973;SDS011;23796;51.458;7.000;2023-10-13T08:24:14;7.80;;;3.67;;
37973;SDS011;23796;51.458;7.000;2023-10-13T08:26:53;9.02;;;3.45;;
37973;SDS011;23796;51.458;7.000;2023-10-13T08:29:22;13.13;;;4.00;;
37973;SDS011;23796;51.458;7.000;2023-10-13T08:31:52;13.02;;;3.60;;
37973;SDS011;23796;51.458;7.000;2023-10-13T08:34:36;8.27;;;3.45;;
37973;SDS011;23796;51.458;7.000;2023-10-13T08:37:25;7.72;;;3.33;;
37973;SDS011;23796;51.458;7.000;2023-10-13T08:39:52;9.55;;;3.67;;
37973;SDS011;23796;51.458;7.000;2023-10-13T08:42:28;11.48;;;3.70;;
37973;SDS011;23796;51.458;7.000;2023-10-13T08:48:01;11.27;;;3.90;;
37973;SDS011;23796;51.458;7.000;2023-10-13T08:50:43;9.40;;;3.65;;
37973;SDS011;23796;51.458;7.000;2023-10-13T08:53:17;9.35;;;4.05;;
37973;SDS011;23796;51.458;7.000;2023-10-13T08:56:12;7.93;;;4.05;;
37973;SDS011;23796;51.458;7.000;2023-10-13T08:58:38;11.02;;;3.45;;
37973;SDS011;23796;51.458;7.000;2023-10-13T09:01:17;9.27;;;3.88;;
37973;SDS011;23796;51.458;7.000;2023-10-13T09:06:46;7.07;;;3.00;;
37973;SDS011;23796;51.458;7.000;2023-10-13T09:09:30;8.02;;;3.80;;
37973;SDS011;23796;51.458;7.000;2023-10-13T09:12:13;8.50;;;3.55;;
37973;SDS011;23796;51.458;7.000;2023-10-13T09:14:40;9.65;;;3.22;;
37973;SDS011;23796;51.458;7.000;2023-10-13T09:17:11;9.60;;;3.92;;
37973;SDS011;23796;51.458;7.000;2023-10-13T09:19:50;10.45;;;3.88;;
37973;SDS011;23796;51.458;7.000;2023-10-13T09:22:26;8.82;;;3.47;;
37973;SDS011;23796;51.458;7.000;2023-10-13T09:25:00;11.65;;;3.42;;
37973;SDS011;23796;51.458;7.000;2023-10-13T09:27:28;7.93;;;3.70;;
37973;SDS011;23796;51.458;7.000;2023-10-13T09:29:57;9.75;;;3.85;;
37973;SDS011;23796;51.458;7.000;2023-10-13T09:32:33;9.70;;;4.05;;
37973;SDS011;23796;51.458;7.000;2023-10-13T09:35:10;7.68;;;3.42;;
37973;SDS011;23796;51.458;7.000;2023-10-13T09:37:44;11.35;;;3.70;;
37973;SDS011;23796;51.458;7.000;2023-10-13T09:40:14;8.10;;;3.72;;
37973;SDS011;23796;51.458;7.000;2023-10-13T09:42:51;11.13;;;3.72;;
37973;SDS011;23796;51.458;7.000;2023-10-13T09:45:21;11.68;;;4.00;;
37973;SDS011;23796;51.458;7.000;2023-10-13T09:47:52;9.93;;;4.18;;
37973;SDS011;23796;51.458;7.000;2023-10-13T09:50:23;8.75;;;3.63;;
37973;SDS011;23796;51.458;7.000;2023-10-13T09:52:58;10.52;;;5.03;;
37973;SDS011;23796;51.458;7.000;2023-10-13T09:55:32;10.20;;;3.67;;
37973;SDS011;23796;51.458;7.000;2023-10-13T09:58:05;11.70;;;3.83;;
37973;SDS011;23796;51.458;7.000;2023-10-13T10:01:00;8.30;;;3.72;;
37973;SDS011;23796;51.458;7.000;2023-10-13T10:03:43;7.60;;;3.60;;
37973;SDS011;23796;51.458;7.000;2023-10-13T10:06:31;8.40;;;3.60;;
37973;SDS011;23796;51.458;7.000;2023-10-13T10:09:07;8.45;;;4.13;;
37973;SDS011;23796;51.458;7.000;2023-10-13T10:11:48;7.60;;;3.58;;
37973;SDS011;23796;51.458;7.000;2023-10-13T10:17:11;8.85;;;3.78;;
37973;SDS011;23796;51.458;7.000;2023-10-13T10:19:47;9.93;;;3.60;;
37973;SDS011;23796;51.458;7.000;2023-10-13T10:22:24;7.97;;;3.35;;
37973;SDS011;23796;51.458;7.000;2023-10-13T10:25:04;10.30;;;4.50;;
37973;SDS011;23796;51.458;7.000;2023-10-13T10:27:54;12.25;;;4.28;;
37973;SDS011;23796;51.458;7.000;2023-10-13T10:30:27;12.82;;;5.70;;
37973;SDS011;23796;51.458;7.000;2023-10-13T10:32:54;9.18;;;4.25;;
37973;SDS011;23796;51.458;7.000;2023-10-13T10:35:31;7.45;;;3.90;;
37973;SDS011;23796;51.458;7.000;2023-10-13T10:38:07;10.75;;;3.80;;
37973;SDS011;23796;51.458;7.000;2023-10-13T10:40:59;10.43;;;4.00;;
37973;SDS011;23796;51.458;7.000;2023-10-13T10:43:29;9.30;;;4.30;;
37973;SDS011;23796;51.458;7.000;2023-10-13T10:46:25;9.82;;;4.07;;
37973;SDS011;23796;51.458;7.000;2023-10-13T10:48:53;9.70;;;4.20;;
37973;SDS011;23796;51.458;7.000;2023-10-13T10:51:27;9.13;;;4.30;;
37973;SDS011;23796;51.458;7.000;2023-10-13T10:53:57;8.45;;;4.35;;
37973;SDS011;23796;51.458;7.000;2023-10-13T10:56:36;11.60;;;3.92;;
37973;SDS011;23796;51.458;7.000;2023-10-13T10:59:02;10.80;;;5.90;;
37973;SDS011;23796;51.458;7.000;2023-10-13T11:01:30;6.65;;;4.10;;
37973;SDS011;23796;51.458;7.000;2023-10-13T11:06:58;12.13;;;4.57;;
37973;SDS011;23796;51.458;7.000;2023-10-13T11:09:27;7.85;;;3.85;;
37973;SDS011;23796;51.458;7.000;2023-10-13T11:11:57;7.50;;;4.00;;
37973;SDS011;23796;51.458;7.000;2023-10-13T11:16:55;7.80;;;3.90;;
37973;SDS011;23796;51.458;7.000;2023-10-13T11:22:14;10.48;;;4.75;;
37973;SDS011;23796;51.458;7.000;2023-10-13T11:25:00;11.73;;;4.70;;
37973;SDS011;23796;51.458;7.000;2023-10-13T11:27:36;12.27;;;4.60;;
37973;SDS011;23796;51.458;7.000;2023-10-13T11:30:18;8.38;;;4.13;;
37973;SDS011;23796;51.458;7.000;2023-10-13T11:33:16;7.00;;;3.97;;
37973;SDS011;23796;51.458;7.000;2023-10-13T11:35:44;11.40;;;4.95;;
37973;SDS011;23796;51.458;7.000;2023-10-13T11:38:18;13.43;;;4.68;;
37973;SDS011;23796;51.458;7.000;2023-10-13T11:40:54;8.32;;;4.15;;
37973;SDS011;23796;51.458;7.000;2023-10-13T11:43:29;10.23;;;4.93;;
37973;SDS011;23796;51.458;7.000;2023-10-13T11:46:39;9.52;;;4.57;;
37973;SDS011;23796;51.458;7.000;2023-10-13T11:49:11;11.00;;;4.40;;
37973;SDS011;23796;51.458;7.000;2023-10-13T11:51:40;9.07;;;5.25;;
37973;SDS011;23796;51.458;7.000;2023-10-13T11:54:19;14.48;;;5.03;;
37973;SDS011;23796;51.458;7.000;2023-10-13T11:56:48;9.90;;;4.53;;
37973;SDS011;23796;51.458;7.000;2023-10-13T11:59:14;15.43;;;5.32;;
37973;SDS011;23796;51.458;7.000;2023-10-13T12:01:44;11.73;;;4.85;;
37973;SDS011;23796;51.458;7.000;2023-10-13T12:04:28;12.38;;;4.53;;
37973;SDS011;23796;51.458;7.000;2023-10-13T12:07:16;8.65;;;4.22;;
37973;SDS011;23796;51.458;7.000;2023-10-13T12:09:47;12.07;;;4.30;;
37973;SDS011;23796;51.458;7.000;2023-10-13T12:12:19;12.57;;;4.72;;
37973;SDS011;23796;51.458;7.000;2023-10-13T12:14:46;11.60;;;4.30;;
37973;SDS011;23796;51.458;7.000;2023-10-13T12:17:36;13.10;;;4.63;;
37973;SDS011;23796;51.458;7.000;2023-10-13T12:20:04;17.40;;;4.18;;
37973;SDS011;23796;51.458;7.000;2023-10-13T12:22:35;10.35;;;4.30;;
37973;SDS011;23796;51.458;7.000;2023-10-13T12:25:04;12.63;;;4.07;;
37973;SDS011;23796;51.458;7.000;2023-10-13T12:27:43;13.93;;;4.10;;
37973;SDS011;23796;51.458;7.000;2023-10-13T12:30:13;15.35;;;5.32;;
37973;SDS011;23796;51.458;7.000;2023-10-13T12:32:47;16.17;;;4.63;;
37973;SDS011;23796;51.458;7.000;2023-10-13T12:35:23;10.45;;;4.05;;
37973;SDS011;23796;51.458;7.000;2023-10-13T12:38:00;12.25;;;4.40;;
37973;SDS011;23796;51.458;7.000;2023-10-13T12:40:31;17.73;;;4.67;;
37973;SDS011;23796;51.458;7.000;2023-10-13T12:43:15;10.38;;;4.05;;
37973;SDS011;23796;51.458;7.000;2023-10-13T12:45:59;10.00;;;4.38;;
37973;SDS011;23796;51.458;7.000;2023-10-13T12:48:43;10.43;;;4.10;;
37973;SDS011;23796;51.458;7.000;2023-10-13T12:51:23;15.07;;;4.38;;
37973;SDS011;23796;51.458;7.000;2023-10-13T12:53:57;16.42;;;4.43;;
37973;SDS011;23796;51.458;7.000;2023-10-13T12:56:39;9.73;;;4.00;;
37973;SDS011;23796;51.458;7.000;2023-10-13T12:59:07;12.82;;;4.70;;
37973;SDS011;23796;51.458;7.000;2023-10-13T13:01:38;12.82;;;4.63;;
37973;SDS011;23796;51.458;7.000;2023-10-13T13:04:07;13.50;;;4.47;;
37973;SDS011;23796;51.458;7.000;2023-10-13T13:06:38;11.32;;;3.80;;
37973;SDS011;23796;51.458;7.000;2023-10-13T13:09:06;10.35;;;4.45;;
37973;SDS011;23796;51.458;7.000;2023-10-13T13:11:34;13.05;;;4.05;;
37973;SDS011;23796;51.458;7.000;2023-10-13T13:14:04;14.45;;;4.60;;
37973;SDS011;23796;51.458;7.000;2023-10-13T13:16:36;11.43;;;4.35;;
37973;SDS011;23796;51.458;7.000;2023-10-13T13:19:04;13.25;;;5.00;;
37973;SDS011;23796;51.458;7.000;2023-10-13T13:21:39;12.10;;;4.82;;
37973;SDS011;23796;51.458;7.000;2023-10-13T13:24:05;15.23;;;4.55;;
37973;SDS011;23796;51.458;7.000;2023-10-13T13:26:39;14.20;;;4.55;;
37973;SDS011;23796;51.458;7.000;2023-10-13T13:29:09;11.25;;;4.05;;
37973;SDS011;23796;51.458;7.000;2023-10-13T13:31:35;12.63;;;4.35;;
37973;SDS011;23796;51.458;7.000;2023-10-13T13:34:07;12.25;;;4.47;;
37973;SDS011;23796;51.458;7.000;2023-10-13T13:36:37;18.35;;;5.00;;
37973;SDS011;23796;51.458;7.000;2023-10-13T13:39:09;21.40;;;5.75;;
37973;SDS011;23796;51.458;7.000;2023-10-13T13:41:39;17.65;;;4.43;;
37973;SDS011;23796;51.458;7.000;2023-10-13T13:44:07;12.98;;;5.05;;
37973;SDS011;23796;51.458;7.000;2023-10-13T13:46:41;12.25;;;4.55;;
37973;SDS011;23796;51.458;7.000;2023-10-13T13:49:07;13.20;;;4.60;;
37973;SDS011;23796;51.458;7.000;2023-10-13T13:51:42;10.98;;;5.03;;
37973;SDS011;23796;51.458;7.000;2023-10-13T13:54:09;16.25;;;4.53;;
37973;SDS011;23796;51.458;7.000;2023-10-13T13:56:34;13.52;;;4.15;;
37973;SDS011;23796;51.458;7.000;2023-10-13T13:59:03;16.35;;;4.93;;
37973;SDS011;23796;51.458;7.000;2023-10-13T14:01:39;14.23;;;4.30;;
37973;SDS011;23796;51.458;7.000;2023-10-13T14:04:05;12.00;;;4.30;;
37973;SDS011;23796;51.458;7.000;2023-10-13T14:06:32;15.23;;;4.40;;
37973;SDS011;23796;51.458;7.000;2023-10-13T14:08:59;14.43;;;5.25;;
37973;SDS011;23796;51.458;7.000;2023-10-13T14:11:39;11.23;;;4.82;;
37973;SDS011;23796;51.458;7.000;2023-10-13T14:16:49;10.98;;;4.53;;
37973;SDS011;23796;51.458;7.000;2023-10-13T14:19:15;14.27;;;4.65;;
37973;SDS011;23796;51.458;7.000;2023-10-13T14:21:59;14.15;;;4.50;;
37973;SDS011;23796;51.458;7.000;2023-10-13T14:24:31;11.98;;;4.32;;
37973;SDS011;23796;51.458;7.000;2023-10-13T14:26:58;13.55;;;4.28;;
37973;SDS011;23796;51.458;7.000;2023-10-13T14:29:36;11.32;;;4.28;;
37973;SDS011;23796;51.458;7.000;2023-10-13T14:32:10;13.18;;;4.57;;
37973;SDS011;23796;51.458;7.000;2023-10-13T14:34:43;13.10;;;4.78;;
37973;SDS011;23796;51.458;7.000;2023-10-13T14:37:11;13.50;;;4.82;;
37973;SDS011;23796;51.458;7.000;2023-10-13T14:39:46;14.68;;;4.30;;
37973;SDS011;23796;51.458;7.000;2023-10-13T14:42:11;12.57;;;3.90;;
37973;SDS011;23796;51.458;7.000;2023-10-13T14:44:37;13.45;;;4.55;;
37973;SDS011;23796;51.458;7.000;2023-10-13T14:47:05;11.55;;;4.85;;
37973;SDS011;23796;51.458;7.000;2023-10-13T14:49:33;16.98;;;4.78;;
37973;SDS011;23796;51.458;7.000;2023-10-13T14:52:00;17.00;;;4.90;;
37973;SDS011;23796;51.458;7.000;2023-10-13T14:54:28;11.15;;;4.38;;
37973;SDS011;23796;51.458;7.000;2023-10-13T14:57:00;11.20;;;4.53;;
37973;SDS011;23796;51.458;7.000;2023-10-13T14:59:29;11.48;;;4.05;;
37973;SDS011;23796;51.458;7.000;2023-10-13T15:01:58;10.90;;;4.67;;
37973;SDS011;23796;51.458;7.000;2023-10-13T15:04:29;20.63;;;5.17;;
37973;SDS011;23796;51.458;7.000;2023-10-13T15:06:59;12.25;;;4.00;;
37973;SDS011;23796;51.458;7.000;2023-10-13T15:09:28;14.38;;;4.30;;
37973;SDS011;23796;51.458;7.000;2023-10-13T15:11:54;11.93;;;3.75;;
37973;SDS011;23796;51.458;7.000;2023-10-13T15:14:20;13.95;;;4.82;;
37973;SDS011;23796;51.458;7.000;2023-10-13T15:16:48;14.23;;;4.13;;
37973;SDS011;23796;51.458;7.000;2023-10-13T15:19:14;12.43;;;4.95;;
37973;SDS011;23796;51.458;7.000;2023-10-13T15:21:42;10.60;;;4.13;;
37973;SDS011;23796;51.458;7.000;2023-10-13T15:24:16;10.90;;;3.65;;
37973;SDS011;23796;51.458;7.000;2023-10-13T15:26:46;14.90;;;4.35;;
37973;SDS011;23796;51.458;7.000;2023-10-13T15:31:41;12.60;;;4.32;;
37973;SDS011;23796;51.458;7.000;2023-10-13T15:34:19;12.52;;;4.10;;
37973;SDS011;23796;51.458;7.000;2023-10-13T15:36:44;10.20;;;3.67;;
37973;SDS011;23796;51.458;7.000;2023-10-13T15:39:13;8.60;;;4.35;;
37973;SDS011;23796;51.458;7.000;2023-10-13T15:41:40;10.35;;;3.83;;
37973;SDS011;23796;51.458;7.000;2023-10-13T15:44:12;8.13;;;3.85;;
37973;SDS011;23796;51.458;7.000;2023-10-13T15:46:40;11.27;;;4.68;;
37973;SDS011;23796;51.458;7.000;2023-10-13T15:49:11;13.38;;;4.15;;
37973;SDS011;23796;51.458;7.000;2023-10-13T15:51:37;9.02;;;3.80;;
37973;SDS011;23796;51.458;7.000;2023-10-13T15:54:05;11.95;;;3.58;;
37973;SDS011;23796;51.458;7.000;2023-10-13T15:56:43;9.60;;;3.97;;
37973;SDS011;23796;51.458;7.000;2023-10-13T15:59:10;10.55;;;3.92;;
37973;SDS011;23796;51.458;7.000;2023-10-13T16:01:36;10.55;;;4.03;;
37973;SDS011;23796;51.458;7.000;2023-10-13T16:04:03;9.95;;;3.72;;
37973;SDS011;23796;51.458;7.000;2023-10-13T16:06:44;10.18;;;4.18;;